sensor_id;sensor_type;location;lat;lon;timestamp;P1;durP1;ratioP1;P2;durP2;ratioP2
52942;SDS011;38809;53.300;6.614;2022-12-18T00:01:45;63.13;;;24.80;;
52942;SDS011;38809;53.300;6.614;2022-12-18T00:04:16;67.47;;;26.75;;
52942;SDS011;38809;53.300;6.614;2022-12-18T00:06:46;59.83;;;25.73;;
52942;SDS011;38809;53.300;6.614;2022-12-18T00:09:12;63.00;;;26.07;;
52942;SDS011;38809;53.300;6.614;2022-12-18T00:11:37;64.90;;;26.42;;
52942;SDS011;38809;53.300;6.614;2022-12-18T00:14:03;60.60;;;21.87;;
52942;SDS011;38809;53.300;6.614;2022-12-18T00:16:29;69.35;;;27.40;;
52942;SDS011;38809;53.300;6.614;2022-12-18T00:18:57;67.82;;;28.15;;
52942;SDS011;38809;53.300;6.614;2022-12-18T00:21:25;60.90;;;23.05;;
52942;SDS011;38809;53.300;6.614;2022-12-18T00:23:52;63.40;;;27.15;;
52942;SDS011;38809;53.300;6.614;2022-12-18T00:26:19;53.15;;;23.27;;
52942;SDS011;38809;53.300;6.614;2022-12-18T00:28:50;51.25;;;20.75;;
52942;SDS011;38809;53.300;6.614;2022-12-18T00:31:18;63.65;;;22.90;;
52942;SDS011;38809;53.300;6.614;2022-12-18T00:33:45;54.65;;;22.05;;
52942;SDS011;38809;53.300;6.614;2022-12-18T00:36:19;60.60;;;23.35;;
52942;SDS011;38809;53.300;6.614;2022-12-18T00:38:46;60.33;;;25.42;;
52942;SDS011;38809;53.300;6.614;2022-12-18T00:41:13;52.25;;;24.25;;
52942;SDS011;38809;53.300;6.614;2022-12-18T00:44:00;60.75;;;24.42;;
52942;SDS011;38809;53.300;6.614;2022-12-18T00:46:26;68.00;;;25.63;;
52942;SDS011;38809;53.300;6.614;2022-12-18T00:48:52;55.83;;;23.77;;
52942;SDS011;38809;53.300;6.614;2022-12-18T00:51:17;57.53;;;24.37;;
52942;SDS011;38809;53.300;6.614;2022-12-18T00:53:43;62.67;;;26.70;;
52942;SDS011;38809;53.300;6.614;2022-12-18T00:56:09;56.75;;;22.95;;
52942;SDS011;38809;53.300;6.614;2022-12-18T00:58:34;65.17;;;27.97;;
52942;SDS011;38809;53.300;6.614;2022-12-18T01:01:00;62.50;;;22.97;;
52942;SDS011;38809;53.300;6.614;2022-12-18T01:03:26;59.73;;;25.80;;
52942;SDS011;38809;53.300;6.614;2022-12-18T01:05:51;56.70;;;22.97;;
52942;SDS011;38809;53.300;6.614;2022-12-18T01:08:17;59.23;;;24.33;;
52942;SDS011;38809;53.300;6.614;2022-12-18T01:10:43;57.03;;;21.02;;
52942;SDS011;38809;53.300;6.614;2022-12-18T01:13:08;58.00;;;23.40;;
52942;SDS011;38809;53.300;6.614;2022-12-18T01:15:34;58.20;;;24.10;;
52942;SDS011;38809;53.300;6.614;2022-12-18T01:18:00;55.93;;;23.80;;
52942;SDS011;38809;53.300;6.614;2022-12-18T01:20:25;60.33;;;25.25;;
52942;SDS011;38809;53.300;6.614;2022-12-18T01:22:51;58.15;;;25.63;;
52942;SDS011;38809;53.300;6.614;2022-12-18T01:25:17;49.47;;;20.77;;
52942;SDS011;38809;53.300;6.614;2022-12-18T01:27:42;57.25;;;22.60;;
52942;SDS011;38809;53.300;6.614;2022-12-18T01:30:08;58.97;;;24.42;;
52942;SDS011;38809;53.300;6.614;2022-12-18T01:32:34;62.75;;;26.50;;
52942;SDS011;38809;53.300;6.614;2022-12-18T01:35:00;61.97;;;23.93;;
52942;SDS011;38809;53.300;6.614;2022-12-18T01:37:26;54.15;;;22.42;;
52942;SDS011;38809;53.300;6.614;2022-12-18T01:39:52;58.50;;;22.00;;
52942;SDS011;38809;53.300;6.614;2022-12-18T01:42:19;54.95;;;21.55;;
52942;SDS011;38809;53.300;6.614;2022-12-18T01:50:34;57.45;;;22.98;;
52942;SDS011;38809;53.300;6.614;2022-12-18T01:53:07;59.05;;;24.20;;
52942;SDS011;38809;53.300;6.614;2022-12-18T01:55:38;54.05;;;24.60;;
52942;SDS011;38809;53.300;6.614;2022-12-18T01:58:13;57.60;;;25.38;;
52942;SDS011;38809;53.300;6.614;2022-12-18T02:00:39;54.38;;;21.05;;
52942;SDS011;38809;53.300;6.614;2022-12-18T02:03:05;57.50;;;23.63;;
52942;SDS011;38809;53.300;6.614;2022-12-18T02:18:59;54.35;;;23.17;;
52942;SDS011;38809;53.300;6.614;2022-12-18T02:21:46;49.80;;;20.67;;
52942;SDS011;38809;53.300;6.614;2022-12-18T02:24:33;55.70;;;20.35;;
52942;SDS011;38809;53.300;6.614;2022-12-18T02:27:06;50.47;;;19.58;;
52942;SDS011;38809;53.300;6.614;2022-12-18T02:29:38;53.28;;;22.70;;
52942;SDS011;38809;53.300;6.614;2022-12-18T02:32:12;50.75;;;20.73;;
52942;SDS011;38809;53.300;6.614;2022-12-18T02:34:41;49.13;;;20.52;;
52942;SDS011;38809;53.300;6.614;2022-12-18T02:37:11;52.70;;;21.55;;
52942;SDS011;38809;53.300;6.614;2022-12-18T02:39:40;55.20;;;22.52;;
52942;SDS011;38809;53.300;6.614;2022-12-18T02:42:08;54.05;;;22.85;;
52942;SDS011;38809;53.300;6.614;2022-12-18T02:44:46;57.28;;;23.42;;
52942;SDS011;38809;53.300;6.614;2022-12-18T02:47:14;55.35;;;23.15;;
52942;SDS011;38809;53.300;6.614;2022-12-18T02:50:03;54.40;;;20.15;;
52942;SDS011;38809;53.300;6.614;2022-12-18T03:05:43;56.22;;;24.02;;
52942;SDS011;38809;53.300;6.614;2022-12-18T03:08:31;56.88;;;21.48;;
52942;SDS011;38809;53.300;6.614;2022-12-18T03:11:06;61.80;;;23.40;;
52942;SDS011;38809;53.300;6.614;2022-12-18T03:16:02;59.97;;;21.88;;
52942;SDS011;38809;53.300;6.614;2022-12-18T03:18:32;63.05;;;23.25;;
52942;SDS011;38809;53.300;6.614;2022-12-18T03:21:04;63.05;;;23.50;;
52942;SDS011;38809;53.300;6.614;2022-12-18T03:23:34;60.90;;;25.58;;
52942;SDS011;38809;53.300;6.614;2022-12-18T03:26:05;63.47;;;24.75;;
52942;SDS011;38809;53.300;6.614;2022-12-18T03:28:35;58.35;;;24.38;;
52942;SDS011;38809;53.300;6.614;2022-12-18T03:31:04;59.88;;;23.48;;
52942;SDS011;38809;53.300;6.614;2022-12-18T03:33:35;55.88;;;22.42;;
52942;SDS011;38809;53.300;6.614;2022-12-18T03:36:06;58.60;;;22.00;;
52942;SDS011;38809;53.300;6.614;2022-12-18T03:38:32;59.67;;;22.23;;
52942;SDS011;38809;53.300;6.614;2022-12-18T03:46:11;58.42;;;23.02;;
52942;SDS011;38809;53.300;6.614;2022-12-18T03:48:51;63.72;;;24.40;;
52942;SDS011;38809;53.300;6.614;2022-12-18T03:51:29;63.45;;;23.60;;
52942;SDS011;38809;53.300;6.614;2022-12-18T03:54:02;58.83;;;25.30;;
52942;SDS011;38809;53.300;6.614;2022-12-18T03:56:31;59.92;;;21.58;;
52942;SDS011;38809;53.300;6.614;2022-12-18T03:59:02;62.08;;;24.42;;
52942;SDS011;38809;53.300;6.614;2022-12-18T04:01:37;57.65;;;24.58;;
52942;SDS011;38809;53.300;6.614;2022-12-18T04:04:08;65.40;;;23.45;;
52942;SDS011;38809;53.300;6.614;2022-12-18T04:06:35;61.55;;;24.20;;
52942;SDS011;38809;53.300;6.614;2022-12-18T04:09:02;58.53;;;24.25;;
52942;SDS011;38809;53.300;6.614;2022-12-18T04:11:28;63.33;;;23.48;;
52942;SDS011;38809;53.300;6.614;2022-12-18T04:13:57;59.17;;;24.77;;
52942;SDS011;38809;53.300;6.614;2022-12-18T04:16:24;57.83;;;24.98;;
52942;SDS011;38809;53.300;6.614;2022-12-18T04:18:53;60.63;;;22.30;;
52942;SDS011;38809;53.300;6.614;2022-12-18T04:21:19;62.20;;;24.42;;
52942;SDS011;38809;53.300;6.614;2022-12-18T04:23:45;60.97;;;23.88;;
52942;SDS011;38809;53.300;6.614;2022-12-18T04:26:11;57.58;;;24.42;;
52942;SDS011;38809;53.300;6.614;2022-12-18T04:28:37;63.92;;;24.63;;
52942;SDS011;38809;53.300;6.614;2022-12-18T04:31:02;57.43;;;23.10;;
52942;SDS011;38809;53.300;6.614;2022-12-18T04:33:28;54.35;;;22.92;;
52942;SDS011;38809;53.300;6.614;2022-12-18T04:35:54;55.73;;;24.03;;
52942;SDS011;38809;53.300;6.614;2022-12-18T04:38:20;63.63;;;23.43;;
52942;SDS011;38809;53.300;6.614;2022-12-18T04:40:45;64.95;;;24.42;;
52942;SDS011;38809;53.300;6.614;2022-12-18T04:43:11;59.63;;;22.53;;
52942;SDS011;38809;53.300;6.614;2022-12-18T04:45:37;57.40;;;22.17;;
52942;SDS011;38809;53.300;6.614;2022-12-18T04:48:02;53.43;;;21.43;;
52942;SDS011;38809;53.300;6.614;2022-12-18T04:50:29;54.85;;;21.23;;
52942;SDS011;38809;53.300;6.614;2022-12-18T04:55:21;55.53;;;22.75;;
52942;SDS011;38809;53.300;6.614;2022-12-18T04:57:47;53.28;;;21.05;;
52942;SDS011;38809;53.300;6.614;2022-12-18T05:00:12;53.57;;;20.97;;
52942;SDS011;38809;53.300;6.614;2022-12-18T05:02:39;61.03;;;23.45;;
52942;SDS011;38809;53.300;6.614;2022-12-18T05:05:04;55.37;;;20.77;;
52942;SDS011;38809;53.300;6.614;2022-12-18T05:07:31;59.03;;;24.25;;
52942;SDS011;38809;53.300;6.614;2022-12-18T05:09:56;57.42;;;22.38;;
52942;SDS011;38809;53.300;6.614;2022-12-18T05:12:22;52.70;;;22.52;;
52942;SDS011;38809;53.300;6.614;2022-12-18T05:14:48;55.38;;;23.45;;
52942;SDS011;38809;53.300;6.614;2022-12-18T05:17:13;48.03;;;21.30;;
52942;SDS011;38809;53.300;6.614;2022-12-18T05:19:39;54.78;;;20.75;;
52942;SDS011;38809;53.300;6.614;2022-12-18T05:22:05;51.13;;;22.27;;
52942;SDS011;38809;53.300;6.614;2022-12-18T05:24:34;56.22;;;22.35;;
52942;SDS011;38809;53.300;6.614;2022-12-18T05:27:00;52.33;;;19.83;;
52942;SDS011;38809;53.300;6.614;2022-12-18T05:29:25;50.03;;;20.73;;
52942;SDS011;38809;53.300;6.614;2022-12-18T05:31:51;57.40;;;20.73;;
52942;SDS011;38809;53.300;6.614;2022-12-18T05:34:17;55.53;;;21.67;;
52942;SDS011;38809;53.300;6.614;2022-12-18T05:36:42;50.70;;;20.57;;
52942;SDS011;38809;53.300;6.614;2022-12-18T05:39:08;54.83;;;22.30;;
52942;SDS011;38809;53.300;6.614;2022-12-18T05:41:34;50.95;;;21.42;;
52942;SDS011;38809;53.300;6.614;2022-12-18T05:43:59;53.97;;;21.50;;
52942;SDS011;38809;53.300;6.614;2022-12-18T05:46:25;49.47;;;21.00;;
52942;SDS011;38809;53.300;6.614;2022-12-18T05:48:51;52.90;;;20.05;;
52942;SDS011;38809;53.300;6.614;2022-12-18T05:51:18;49.88;;;20.63;;
52942;SDS011;38809;53.300;6.614;2022-12-18T05:53:46;52.83;;;21.15;;
52942;SDS011;38809;53.300;6.614;2022-12-18T05:56:13;48.75;;;19.60;;
52942;SDS011;38809;53.300;6.614;2022-12-18T05:58:41;52.63;;;22.23;;
52942;SDS011;38809;53.300;6.614;2022-12-18T06:03:37;54.08;;;21.63;;
52942;SDS011;38809;53.300;6.614;2022-12-18T06:06:03;49.20;;;20.23;;
52942;SDS011;38809;53.300;6.614;2022-12-18T06:08:29;44.38;;;19.33;;
52942;SDS011;38809;53.300;6.614;2022-12-18T06:10:55;55.42;;;20.85;;
52942;SDS011;38809;53.300;6.614;2022-12-18T06:13:21;55.17;;;22.83;;
52942;SDS011;38809;53.300;6.614;2022-12-18T06:15:47;46.33;;;20.15;;
52942;SDS011;38809;53.300;6.614;2022-12-18T06:18:13;46.07;;;19.20;;
52942;SDS011;38809;53.300;6.614;2022-12-18T06:20:39;46.17;;;20.85;;
52942;SDS011;38809;53.300;6.614;2022-12-18T06:23:06;49.28;;;18.80;;
52942;SDS011;38809;53.300;6.614;2022-12-18T06:25:36;44.35;;;19.20;;
52942;SDS011;38809;53.300;6.614;2022-12-18T06:28:03;41.10;;;18.67;;
52942;SDS011;38809;53.300;6.614;2022-12-18T06:30:28;47.50;;;21.02;;
52942;SDS011;38809;53.300;6.614;2022-12-18T06:32:54;44.17;;;19.25;;
52942;SDS011;38809;53.300;6.614;2022-12-18T06:35:20;43.70;;;18.43;;
52942;SDS011;38809;53.300;6.614;2022-12-18T06:37:45;46.40;;;20.40;;
52942;SDS011;38809;53.300;6.614;2022-12-18T06:40:11;43.90;;;18.53;;
52942;SDS011;38809;53.300;6.614;2022-12-18T06:42:37;43.47;;;17.77;;
52942;SDS011;38809;53.300;6.614;2022-12-18T06:45:02;40.17;;;17.35;;
52942;SDS011;38809;53.300;6.614;2022-12-18T06:47:28;34.95;;;16.65;;
52942;SDS011;38809;53.300;6.614;2022-12-18T06:49:54;39.47;;;17.47;;
52942;SDS011;38809;53.300;6.614;2022-12-18T06:52:20;40.13;;;17.15;;
52942;SDS011;38809;53.300;6.614;2022-12-18T06:54:45;38.10;;;18.37;;
52942;SDS011;38809;53.300;6.614;2022-12-18T06:57:11;38.50;;;18.10;;
52942;SDS011;38809;53.300;6.614;2022-12-18T06:59:37;33.63;;;15.85;;
52942;SDS011;38809;53.300;6.614;2022-12-18T07:02:02;42.80;;;17.40;;
52942;SDS011;38809;53.300;6.614;2022-12-18T07:04:28;37.03;;;15.27;;
52942;SDS011;38809;53.300;6.614;2022-12-18T07:06:54;40.42;;;16.63;;
52942;SDS011;38809;53.300;6.614;2022-12-18T07:09:20;38.38;;;16.58;;
52942;SDS011;38809;53.300;6.614;2022-12-18T07:11:46;32.40;;;16.75;;
52942;SDS011;38809;53.300;6.614;2022-12-18T07:14:11;40.20;;;17.97;;
52942;SDS011;38809;53.300;6.614;2022-12-18T07:16:37;38.42;;;15.73;;
52942;SDS011;38809;53.300;6.614;2022-12-18T07:19:03;30.92;;;14.68;;
52942;SDS011;38809;53.300;6.614;2022-12-18T07:21:29;41.23;;;15.33;;
52942;SDS011;38809;53.300;6.614;2022-12-18T07:23:54;30.47;;;14.70;;
52942;SDS011;38809;53.300;6.614;2022-12-18T07:26:20;33.88;;;14.40;;
52942;SDS011;38809;53.300;6.614;2022-12-18T07:31:20;24.92;;;12.40;;
52942;SDS011;38809;53.300;6.614;2022-12-18T07:33:46;34.55;;;14.57;;
52942;SDS011;38809;53.300;6.614;2022-12-18T07:38:39;29.80;;;13.80;;
52942;SDS011;38809;53.300;6.614;2022-12-18T07:41:10;27.55;;;14.25;;
52942;SDS011;38809;53.300;6.614;2022-12-18T07:43:38;30.33;;;13.02;;
52942;SDS011;38809;53.300;6.614;2022-12-18T07:46:04;27.23;;;14.73;;
52942;SDS011;38809;53.300;6.614;2022-12-18T07:48:31;27.20;;;14.23;;
52942;SDS011;38809;53.300;6.614;2022-12-18T07:51:00;31.35;;;14.73;;
52942;SDS011;38809;53.300;6.614;2022-12-18T07:53:27;31.20;;;14.82;;
52942;SDS011;38809;53.300;6.614;2022-12-18T07:55:57;29.70;;;15.48;;
52942;SDS011;38809;53.300;6.614;2022-12-18T07:58:24;32.15;;;14.45;;
52942;SDS011;38809;53.300;6.614;2022-12-18T08:00:50;29.55;;;14.23;;
52942;SDS011;38809;53.300;6.614;2022-12-18T08:03:17;26.55;;;12.77;;
52942;SDS011;38809;53.300;6.614;2022-12-18T08:05:43;28.77;;;14.10;;
52942;SDS011;38809;53.300;6.614;2022-12-18T08:08:09;33.25;;;14.07;;
52942;SDS011;38809;53.300;6.614;2022-12-18T08:10:34;31.55;;;14.25;;
52942;SDS011;38809;53.300;6.614;2022-12-18T08:13:00;29.27;;;14.47;;
52942;SDS011;38809;53.300;6.614;2022-12-18T08:15:26;29.55;;;14.18;;
52942;SDS011;38809;53.300;6.614;2022-12-18T08:17:51;30.53;;;14.50;;
52942;SDS011;38809;53.300;6.614;2022-12-18T08:20:17;34.25;;;14.55;;
52942;SDS011;38809;53.300;6.614;2022-12-18T08:22:43;30.42;;;14.90;;
52942;SDS011;38809;53.300;6.614;2022-12-18T08:25:09;31.48;;;14.23;;
52942;SDS011;38809;53.300;6.614;2022-12-18T08:27:35;34.22;;;14.40;;
52942;SDS011;38809;53.300;6.614;2022-12-18T08:30:01;28.20;;;14.23;;
52942;SDS011;38809;53.300;6.614;2022-12-18T08:32:28;30.08;;;15.18;;
52942;SDS011;38809;53.300;6.614;2022-12-18T08:34:54;28.53;;;13.20;;
52942;SDS011;38809;53.300;6.614;2022-12-18T08:37:20;27.97;;;13.50;;
52942;SDS011;38809;53.300;6.614;2022-12-18T08:39:45;32.35;;;15.18;;
52942;SDS011;38809;53.300;6.614;2022-12-18T08:42:11;30.60;;;14.27;;
52942;SDS011;38809;53.300;6.614;2022-12-18T08:44:56;26.38;;;12.48;;
52942;SDS011;38809;53.300;6.614;2022-12-18T08:47:21;27.67;;;14.70;;
52942;SDS011;38809;53.300;6.614;2022-12-18T08:49:47;31.10;;;14.80;;
52942;SDS011;38809;53.300;6.614;2022-12-18T08:52:13;30.95;;;14.85;;
52942;SDS011;38809;53.300;6.614;2022-12-18T08:54:39;32.63;;;14.50;;
52942;SDS011;38809;53.300;6.614;2022-12-18T08:57:04;30.23;;;13.50;;
52942;SDS011;38809;53.300;6.614;2022-12-18T08:59:30;23.97;;;13.37;;
52942;SDS011;38809;53.300;6.614;2022-12-18T09:01:56;27.98;;;14.48;;
52942;SDS011;38809;53.300;6.614;2022-12-18T09:04:22;30.85;;;16.65;;
52942;SDS011;38809;53.300;6.614;2022-12-18T09:06:49;25.80;;;13.45;;
52942;SDS011;38809;53.300;6.614;2022-12-18T09:11:40;29.00;;;13.43;;
52942;SDS011;38809;53.300;6.614;2022-12-18T09:14:06;30.75;;;15.30;;
52942;SDS011;38809;53.300;6.614;2022-12-18T09:16:32;26.13;;;12.82;;
52942;SDS011;38809;53.300;6.614;2022-12-18T09:19:00;27.05;;;14.32;;
52942;SDS011;38809;53.300;6.614;2022-12-18T09:21:28;23.38;;;13.20;;
52942;SDS011;38809;53.300;6.614;2022-12-18T09:23:55;26.98;;;13.40;;
52942;SDS011;38809;53.300;6.614;2022-12-18T09:26:22;26.42;;;13.90;;
52942;SDS011;38809;53.300;6.614;2022-12-18T09:28:49;27.13;;;14.18;;
52942;SDS011;38809;53.300;6.614;2022-12-18T09:31:16;25.92;;;13.85;;
52942;SDS011;38809;53.300;6.614;2022-12-18T09:33:43;28.80;;;14.48;;
52942;SDS011;38809;53.300;6.614;2022-12-18T09:36:11;28.40;;;14.15;;
52942;SDS011;38809;53.300;6.614;2022-12-18T09:38:38;23.70;;;13.13;;
52942;SDS011;38809;53.300;6.614;2022-12-18T09:41:05;26.05;;;13.77;;
52942;SDS011;38809;53.300;6.614;2022-12-18T09:43:51;27.02;;;14.18;;
52942;SDS011;38809;53.300;6.614;2022-12-18T09:46:26;25.52;;;11.73;;
52942;SDS011;38809;53.300;6.614;2022-12-18T09:48:56;22.98;;;13.30;;
52942;SDS011;38809;53.300;6.614;2022-12-18T09:51:27;19.52;;;11.02;;
52942;SDS011;38809;53.300;6.614;2022-12-18T09:54:05;22.25;;;11.68;;
52942;SDS011;38809;53.300;6.614;2022-12-18T09:56:36;23.20;;;12.40;;
52942;SDS011;38809;53.300;6.614;2022-12-18T09:59:05;20.48;;;12.02;;
52942;SDS011;38809;53.300;6.614;2022-12-18T10:01:52;23.67;;;12.65;;
52942;SDS011;38809;53.300;6.614;2022-12-18T10:04:18;17.83;;;11.15;;
52942;SDS011;38809;53.300;6.614;2022-12-18T10:07:01;23.52;;;11.80;;
52942;SDS011;38809;53.300;6.614;2022-12-18T10:09:39;24.02;;;11.45;;
52942;SDS011;38809;53.300;6.614;2022-12-18T10:15:12;21.20;;;11.18;;
52942;SDS011;38809;53.300;6.614;2022-12-18T10:17:46;20.20;;;9.98;;
52942;SDS011;38809;53.300;6.614;2022-12-18T10:20:22;19.20;;;10.70;;
52942;SDS011;38809;53.300;6.614;2022-12-18T10:22:53;18.38;;;9.93;;
52942;SDS011;38809;53.300;6.614;2022-12-18T10:28:13;16.23;;;9.20;;
52942;SDS011;38809;53.300;6.614;2022-12-18T10:30:41;19.88;;;10.40;;
52942;SDS011;38809;53.300;6.614;2022-12-18T10:33:12;17.55;;;8.55;;
52942;SDS011;38809;53.300;6.614;2022-12-18T10:35:41;15.73;;;8.50;;
52942;SDS011;38809;53.300;6.614;2022-12-18T10:43:29;16.65;;;8.77;;
52942;SDS011;38809;53.300;6.614;2022-12-18T10:48:27;15.95;;;8.82;;
52942;SDS011;38809;53.300;6.614;2022-12-18T10:50:54;14.63;;;9.15;;
52942;SDS011;38809;53.300;6.614;2022-12-18T10:53:23;15.75;;;8.63;;
52942;SDS011;38809;53.300;6.614;2022-12-18T10:55:52;18.25;;;9.50;;
52942;SDS011;38809;53.300;6.614;2022-12-18T11:00:44;16.77;;;9.20;;
52942;SDS011;38809;53.300;6.614;2022-12-18T11:03:29;16.47;;;8.80;;
52942;SDS011;38809;53.300;6.614;2022-12-18T11:06:02;17.10;;;9.30;;
52942;SDS011;38809;53.300;6.614;2022-12-18T11:08:30;19.17;;;10.30;;
52942;SDS011;38809;53.300;6.614;2022-12-18T11:10:56;19.30;;;11.25;;
52942;SDS011;38809;53.300;6.614;2022-12-18T11:13:23;17.52;;;10.82;;
52942;SDS011;38809;53.300;6.614;2022-12-18T11:15:51;16.27;;;9.93;;
52942;SDS011;38809;53.300;6.614;2022-12-18T11:18:18;16.30;;;9.13;;
52942;SDS011;38809;53.300;6.614;2022-12-18T11:20:51;15.23;;;9.40;;
52942;SDS011;38809;53.300;6.614;2022-12-18T11:23:24;15.25;;;9.23;;
52942;SDS011;38809;53.300;6.614;2022-12-18T11:25:52;14.30;;;9.18;;
52942;SDS011;38809;53.300;6.614;2022-12-18T11:33:47;14.55;;;8.77;;
52942;SDS011;38809;53.300;6.614;2022-12-18T11:36:28;13.75;;;8.85;;
52942;SDS011;38809;53.300;6.614;2022-12-18T11:38:58;13.98;;;8.32;;
52942;SDS011;38809;53.300;6.614;2022-12-18T11:41:34;14.43;;;8.38;;
52942;SDS011;38809;53.300;6.614;2022-12-18T11:44:28;14.90;;;7.65;;
52942;SDS011;38809;53.300;6.614;2022-12-18T11:47:00;15.05;;;8.40;;
52942;SDS011;38809;53.300;6.614;2022-12-18T11:49:34;14.85;;;7.30;;
52942;SDS011;38809;53.300;6.614;2022-12-18T11:52:14;14.55;;;8.07;;
52942;SDS011;38809;53.300;6.614;2022-12-18T11:54:52;18.73;;;8.38;;
52942;SDS011;38809;53.300;6.614;2022-12-18T11:57:25;10.98;;;7.13;;
52942;SDS011;38809;53.300;6.614;2022-12-18T12:00:11;12.57;;;7.50;;
52942;SDS011;38809;53.300;6.614;2022-12-18T12:05:59;9.80;;;5.53;;
52942;SDS011;38809;53.300;6.614;2022-12-18T12:13:57;11.52;;;6.43;;
52942;SDS011;38809;53.300;6.614;2022-12-18T12:16:37;11.23;;;6.63;;
52942;SDS011;38809;53.300;6.614;2022-12-18T12:27:27;8.80;;;6.05;;
52942;SDS011;38809;53.300;6.614;2022-12-18T12:30:09;9.90;;;6.40;;
52942;SDS011;38809;53.300;6.614;2022-12-18T12:33:47;9.65;;;5.63;;
52942;SDS011;38809;53.300;6.614;2022-12-18T12:38:44;9.80;;;5.57;;
52942;SDS011;38809;53.300;6.614;2022-12-18T12:41:16;8.63;;;5.43;;
52942;SDS011;38809;53.300;6.614;2022-12-18T12:44:05;8.52;;;4.85;;
52942;SDS011;38809;53.300;6.614;2022-12-18T12:46:35;9.18;;;5.10;;
52942;SDS011;38809;53.300;6.614;2022-12-18T12:49:09;9.75;;;5.35;;
52942;SDS011;38809;53.300;6.614;2022-12-18T12:51:41;11.55;;;5.57;;
52942;SDS011;38809;53.300;6.614;2022-12-18T12:54:20;10.25;;;4.70;;
52942;SDS011;38809;53.300;6.614;2022-12-18T12:56:57;9.35;;;5.22;;
52942;SDS011;38809;53.300;6.614;2022-12-18T13:15:32;9.00;;;4.43;;
52942;SDS011;38809;53.300;6.614;2022-12-18T13:20:34;7.72;;;4.75;;
52942;SDS011;38809;53.300;6.614;2022-12-18T13:23:18;9.70;;;5.80;;
52942;SDS011;38809;53.300;6.614;2022-12-18T13:26:48;8.35;;;4.65;;
52942;SDS011;38809;53.300;6.614;2022-12-18T13:28:52;8.10;;;4.95;;
52942;SDS011;38809;53.300;6.614;2022-12-18T13:36:42;7.85;;;4.55;;
52942;SDS011;38809;53.300;6.614;2022-12-18T13:39:09;9.52;;;4.97;;
52942;SDS011;38809;53.300;6.614;2022-12-18T13:41:35;7.45;;;4.55;;
52942;SDS011;38809;53.300;6.614;2022-12-18T13:46:44;9.52;;;4.63;;
52942;SDS011;38809;53.300;6.614;2022-12-18T13:51:39;10.57;;;5.00;;
52942;SDS011;38809;53.300;6.614;2022-12-18T13:56:49;8.07;;;4.22;;
52942;SDS011;38809;53.300;6.614;2022-12-18T14:01:45;8.90;;;5.43;;
52942;SDS011;38809;53.300;6.614;2022-12-18T14:06:51;7.68;;;4.85;;
52942;SDS011;38809;53.300;6.614;2022-12-18T14:09:24;8.95;;;4.80;;
52942;SDS011;38809;53.300;6.614;2022-12-18T14:11:52;8.05;;;4.78;;
52942;SDS011;38809;53.300;6.614;2022-12-18T14:14:41;8.02;;;5.57;;
52942;SDS011;38809;53.300;6.614;2022-12-18T14:17:12;8.75;;;5.07;;
52942;SDS011;38809;53.300;6.614;2022-12-18T14:19:43;8.90;;;4.68;;
52942;SDS011;38809;53.300;6.614;2022-12-18T14:22:15;8.25;;;4.68;;
52942;SDS011;38809;53.300;6.614;2022-12-18T14:25:14;9.23;;;5.47;;
52942;SDS011;38809;53.300;6.614;2022-12-18T14:27:42;10.52;;;5.97;;
52942;SDS011;38809;53.300;6.614;2022-12-18T14:33:00;8.37;;;5.47;;
52942;SDS011;38809;53.300;6.614;2022-12-18T14:35:38;9.48;;;5.57;;
52942;SDS011;38809;53.300;6.614;2022-12-18T14:40:59;11.55;;;6.18;;
52942;SDS011;38809;53.300;6.614;2022-12-18T14:43:26;10.45;;;6.03;;
52942;SDS011;38809;53.300;6.614;2022-12-18T14:45:53;11.45;;;5.97;;
52942;SDS011;38809;53.300;6.614;2022-12-18T14:48:21;11.27;;;6.75;;
52942;SDS011;38809;53.300;6.614;2022-12-18T14:53:29;11.07;;;6.28;;
52942;SDS011;38809;53.300;6.614;2022-12-18T14:55:55;10.80;;;6.10;;
52942;SDS011;38809;53.300;6.614;2022-12-18T14:58:21;10.83;;;6.47;;
52942;SDS011;38809;53.300;6.614;2022-12-18T15:00:47;12.73;;;7.18;;
52942;SDS011;38809;53.300;6.614;2022-12-18T15:03:14;12.32;;;6.50;;
52942;SDS011;38809;53.300;6.614;2022-12-18T15:05:45;10.02;;;5.90;;
52942;SDS011;38809;53.300;6.614;2022-12-18T15:08:53;10.10;;;5.63;;
52942;SDS011;38809;53.300;6.614;2022-12-18T15:11:01;11.70;;;6.50;;
52942;SDS011;38809;53.300;6.614;2022-12-18T15:15:54;10.07;;;6.30;;
52942;SDS011;38809;53.300;6.614;2022-12-18T15:18:27;11.80;;;7.22;;
52942;SDS011;38809;53.300;6.614;2022-12-18T15:20:58;12.45;;;6.50;;
52942;SDS011;38809;53.300;6.614;2022-12-18T15:23:35;12.32;;;7.50;;
52942;SDS011;38809;53.300;6.614;2022-12-18T15:26:21;13.55;;;7.25;;
52942;SDS011;38809;53.300;6.614;2022-12-18T15:28:48;13.68;;;7.45;;
52942;SDS011;38809;53.300;6.614;2022-12-18T15:31:33;13.25;;;7.60;;
52942;SDS011;38809;53.300;6.614;2022-12-18T15:36:39;12.18;;;7.30;;
52942;SDS011;38809;53.300;6.614;2022-12-18T15:39:05;12.50;;;7.65;;
52942;SDS011;38809;53.300;6.614;2022-12-18T15:41:32;11.27;;;6.63;;
52942;SDS011;38809;53.300;6.614;2022-12-18T15:43:59;13.90;;;7.72;;
52942;SDS011;38809;53.300;6.614;2022-12-18T15:46:25;13.13;;;8.20;;
52942;SDS011;38809;53.300;6.614;2022-12-18T15:48:55;13.55;;;7.22;;
52942;SDS011;38809;53.300;6.614;2022-12-18T15:51:32;12.18;;;7.63;;
52942;SDS011;38809;53.300;6.614;2022-12-18T15:54:00;16.05;;;7.32;;
52942;SDS011;38809;53.300;6.614;2022-12-18T15:56:28;12.65;;;8.13;;
52942;SDS011;38809;53.300;6.614;2022-12-18T15:59:14;13.30;;;7.07;;
52942;SDS011;38809;53.300;6.614;2022-12-18T16:01:41;13.07;;;7.80;;
52942;SDS011;38809;53.300;6.614;2022-12-18T16:04:11;12.18;;;7.55;;
52942;SDS011;38809;53.300;6.614;2022-12-18T16:06:38;11.93;;;7.30;;
52942;SDS011;38809;53.300;6.614;2022-12-18T16:09:04;12.60;;;7.78;;
52942;SDS011;38809;53.300;6.614;2022-12-18T16:11:31;14.95;;;8.55;;
52942;SDS011;38809;53.300;6.614;2022-12-18T16:14:21;15.50;;;7.68;;
52942;SDS011;38809;53.300;6.614;2022-12-18T16:16:56;14.30;;;7.80;;
52942;SDS011;38809;53.300;6.614;2022-12-18T16:19:23;13.10;;;7.97;;
52942;SDS011;38809;53.300;6.614;2022-12-18T16:21:51;12.48;;;7.55;;
52942;SDS011;38809;53.300;6.614;2022-12-18T16:24:19;13.63;;;8.20;;
52942;SDS011;38809;53.300;6.614;2022-12-18T16:26:49;14.55;;;7.78;;
52942;SDS011;38809;53.300;6.614;2022-12-18T16:29:19;13.00;;;8.07;;
52942;SDS011;38809;53.300;6.614;2022-12-18T16:31:59;13.55;;;7.82;;
52942;SDS011;38809;53.300;6.614;2022-12-18T16:36:56;14.35;;;8.07;;
52942;SDS011;38809;53.300;6.614;2022-12-18T16:39:26;13.80;;;7.82;;
52942;SDS011;38809;53.300;6.614;2022-12-18T16:41:53;12.05;;;7.50;;
52942;SDS011;38809;53.300;6.614;2022-12-18T16:44:19;11.93;;;7.82;;
52942;SDS011;38809;53.300;6.614;2022-12-18T16:46:45;11.95;;;7.93;;
52942;SDS011;38809;53.300;6.614;2022-12-18T16:49:15;13.82;;;7.07;;
52942;SDS011;38809;53.300;6.614;2022-12-18T16:51:42;12.55;;;7.15;;
52942;SDS011;38809;53.300;6.614;2022-12-18T16:54:10;13.25;;;7.72;;
52942;SDS011;38809;53.300;6.614;2022-12-18T16:56:36;13.00;;;8.30;;
52942;SDS011;38809;53.300;6.614;2022-12-18T16:59:02;12.93;;;6.97;;
52942;SDS011;38809;53.300;6.614;2022-12-18T17:01:28;11.90;;;6.57;;
52942;SDS011;38809;53.300;6.614;2022-12-18T17:04:03;15.50;;;7.55;;
52942;SDS011;38809;53.300;6.614;2022-12-18T17:06:31;12.70;;;6.28;;